createdAt,value
2023-01-29T00:06:44.760Z,18.33
2023-01-29T00:16:53.704Z,18.25
2023-01-29T00:27:03.028Z,18.25
2023-01-29T00:37:12.068Z,18.20
2023-01-29T00:47:22.659Z,18.14
2023-01-29T00:57:32.884Z,18.16
2023-01-29T01:07:42.275Z,18.12
2023-01-29T01:17:50.801Z,18.12
2023-01-29T01:28:00.308Z,18.16
2023-01-29T01:38:10.036Z,18.10
2023-01-29T01:48:19.704Z,18.09
2023-01-29T01:58:30.173Z,18.06
2023-01-29T02:08:39.756Z,18.09
2023-01-29T02:18:49.408Z,18.14
2023-01-29T02:28:59.515Z,18.12
2023-01-29T02:39:08.502Z,18.08
2023-01-29T02:49:18.579Z,18.10
2023-01-29T02:59:28.625Z,18.08
2023-01-29T03:09:38.485Z,18.02
2023-01-29T03:19:48.078Z,18.02
2023-01-29T03:29:58.043Z,18.02
2023-01-29T03:40:08.391Z,18.04
2023-01-29T03:50:18.632Z,18.04
2023-01-29T04:00:28.166Z,18.05
2023-01-29T04:10:37.668Z,18.02
2023-01-29T04:20:47.484Z,18.02
2023-01-29T04:30:58.093Z,18.01
2023-01-29T04:41:06.800Z,18.04
2023-01-29T04:51:15.167Z,18.01
2023-01-29T05:01:26.886Z,18.00
2023-01-29T05:11:37.532Z,18.02
2023-01-29T05:21:46.415Z,17.98
2023-01-29T05:31:55.673Z,17.97
2023-01-29T05:42:06.120Z,17.95
2023-01-29T05:52:15.233Z,18.02
2023-01-29T06:02:25.177Z,18.01
2023-01-29T06:12:34.387Z,17.98
2023-01-29T06:22:43.809Z,17.98
2023-01-29T06:32:52.962Z,17.95
2023-01-29T06:43:02.929Z,17.91
2023-01-29T06:53:12.813Z,17.85
2023-01-29T07:03:22.793Z,17.85
2023-01-29T07:13:31.989Z,17.95
2023-01-29T07:23:41.587Z,17.89
2023-01-29T07:33:51.027Z,17.88
2023-01-29T07:44:00.730Z,17.97
2023-01-29T07:54:10.329Z,17.93
2023-01-29T08:04:20.210Z,17.98
2023-01-29T08:14:29.968Z,17.95
2023-01-29T08:24:53.328Z,17.95
2023-01-29T08:34:53.997Z,17.95
2023-01-29T08:45:03.899Z,17.93
2023-01-29T08:55:13.896Z,17.95
2023-01-29T09:05:23.346Z,18.00
2023-01-29T09:15:32.618Z,17.98
2023-01-29T09:25:41.993Z,18.14
2023-01-29T09:35:51.659Z,18.10
2023-01-29T09:46:01.540Z,18.22
2023-01-29T09:56:11.501Z,18.16
2023-01-29T10:06:21.141Z,18.14
2023-01-29T10:16:30.423Z,18.23
2023-01-29T10:26:39.435Z,18.23
2023-01-29T10:36:49.066Z,18.38
2023-01-29T10:46:58.371Z,18.45
2023-01-29T10:57:08.028Z,18.47
2023-01-29T11:07:17.651Z,18.60
2023-01-29T11:17:27.422Z,18.59
2023-01-29T11:27:37.964Z,18.76
2023-01-29T11:37:47.833Z,18.62
2023-01-29T11:47:58.280Z,18.64
2023-01-29T11:58:07.755Z,18.64
2023-01-29T12:08:17.648Z,18.62
2023-01-29T12:18:27.378Z,18.62
2023-01-29T12:28:37.298Z,18.52
2023-01-29T12:38:46.029Z,18.55
2023-01-29T12:48:55.011Z,18.45
2023-01-29T12:59:05.105Z,18.52
2023-01-29T13:09:14.956Z,18.51
2023-01-29T13:19:25.736Z,18.47
2023-01-29T13:29:35.008Z,18.47
2023-01-29T13:39:44.716Z,18.47
2023-01-29T13:49:53.196Z,18.39
2023-01-29T14:00:02.418Z,18.45
2023-01-29T14:10:13.760Z,18.50
2023-01-29T14:20:25.741Z,18.64
2023-01-29T14:30:37.750Z,18.68
2023-01-29T14:40:46.712Z,18.56
2023-01-29T14:50:55.502Z,18.62
2023-01-29T15:01:04.063Z,18.66
2023-01-29T15:11:13.711Z,18.59
2023-01-29T15:21:23.170Z,18.38
2023-01-29T15:31:32.695Z,18.38
2023-01-29T15:41:42.492Z,18.26
2023-01-29T15:51:52.135Z,18.25
2023-01-29T16:02:01.224Z,18.22
2023-01-29T16:12:10.961Z,18.23
2023-01-29T16:22:21.002Z,18.16
2023-01-29T16:32:30.744Z,18.16
2023-01-29T16:42:40.453Z,18.22
2023-01-29T16:52:49.836Z,18.18
2023-01-29T17:02:59.322Z,18.25
2023-01-29T17:13:09.225Z,18.27
2023-01-29T17:23:19.297Z,18.33
2023-01-29T17:33:29.102Z,18.38
2023-01-29T17:43:37.739Z,18.41
2023-01-29T17:53:47.321Z,18.50
2023-01-29T18:03:57.311Z,18.62
2023-01-29T18:14:13.591Z,18.70
2023-01-29T18:24:22.273Z,18.70
2023-01-29T18:34:31.654Z,18.99
2023-01-29T18:44:42.198Z,19.21
2023-01-29T18:54:52.717Z,19.34
2023-01-29T19:05:03.417Z,19.42
2023-01-29T19:15:12.294Z,19.33
2023-01-29T19:25:21.999Z,19.24
2023-01-29T19:35:32.486Z,19.16
2023-01-29T19:45:49.479Z,19.16
2023-01-29T19:55:55.730Z,19.17
2023-01-29T20:06:06.294Z,19.21
2023-01-29T20:16:14.671Z,19.20
2023-01-29T20:26:24.460Z,19.09
2023-01-29T20:36:34.173Z,18.97
2023-01-29T20:46:43.351Z,18.95
2023-01-29T20:56:52.757Z,18.90
2023-01-29T21:07:03.267Z,18.86
2023-01-29T21:17:13.313Z,18.82
2023-01-29T21:27:23.381Z,18.94
2023-01-29T21:37:33.726Z,19.20
2023-01-29T21:47:43.902Z,19.23
2023-01-29T21:57:53.259Z,19.25
2023-01-29T22:08:03.061Z,19.16
2023-01-29T22:18:12.667Z,19.16
2023-01-29T22:28:22.681Z,19.11
2023-01-29T22:38:32.587Z,19.07
2023-01-29T22:48:41.631Z,18.95
2023-01-29T22:58:51.301Z,18.95
2023-01-29T23:09:01.073Z,18.93
2023-01-29T23:19:10.895Z,18.90
2023-01-29T23:29:20.427Z,18.88
2023-01-29T23:39:30.653Z,18.84
2023-01-29T23:49:41.135Z,18.76
2023-01-29T23:59:50.759Z,18.77
